Etusivu
METAR-TAF:

METAR-TAF

Lentoasemat :

Chariton Municipal Airport

Chariton, Iowa, Yhdysvallat

Leveyspiiri: 41-02N, Pituuspiiri: 093-22W, korkeus merenpinnasta: 320 m

Tämänhetkinen sää

Tämä raportti tehtiin 31 minuuttia sitten, kello 02.15 UTC
Tuuli 10 kn etelästä puuskistuen 16 kn:hen
Lämpötila 22°C
Kosteus 100%
Ilmanpaine 1009 hPa
Näkyvyys: 16.1 km
selkeää

METAR: KCNC 270215Z AUTO 19010G16KT 10SM CLR 22/22 A2980 RMK AO2

Aika: 21:46 (02:46 UTC)


TAF: puuttuu

Säähavainnot ja -ennusteet yli 4000 lentoasemalta (METAR- ja TAF-raportit).

Käytössä olevat sääasemat on merkitty karttaan keltaisilla ja punaisilla pisteillä.

Aseta hiiri pisteen päälle nähdäksesi sääaseman nimen.

Klikkaa sitten nähdäksesi säähavainnot ja -ennusteet.

Kartan vaihtaminen: klikkaa mustalla rastilla varustettuja vihreitä pisteitä, niin voit zoomata sisään; viivalla varustettua vihreää pistettä, niin voit zoomata ulos tai vihreitä nuolia, niin pääset viereisille kartoille.


METAR-TAF: